sensor_id;sensor_type;location;lat;lon;timestamp;P1;durP1;ratioP1;P2;durP2;ratioP2
46355;SDS011;32066;49.474;11.106;2022-10-18T00:00:12;11.93;;;7.00;;
46355;SDS011;32066;49.474;11.106;2022-10-18T00:02:39;11.55;;;6.55;;
46355;SDS011;32066;49.474;11.106;2022-10-18T00:05:06;12.57;;;6.55;;
46355;SDS011;32066;49.474;11.106;2022-10-18T00:07:33;14.40;;;7.30;;
46355;SDS011;32066;49.474;11.106;2022-10-18T00:10:02;14.07;;;7.30;;
46355;SDS011;32066;49.474;11.106;2022-10-18T00:12:30;11.88;;;7.22;;
46355;SDS011;32066;49.474;11.106;2022-10-18T00:14:58;14.07;;;6.53;;
46355;SDS011;32066;49.474;11.106;2022-10-18T00:17:24;10.90;;;7.03;;
46355;SDS011;32066;49.474;11.106;2022-10-18T00:19:51;12.70;;;6.88;;
46355;SDS011;32066;49.474;11.106;2022-10-18T00:22:18;13.50;;;7.20;;
46355;SDS011;32066;49.474;11.106;2022-10-18T00:24:45;14.55;;;6.88;;
46355;SDS011;32066;49.474;11.106;2022-10-18T00:27:13;13.25;;;7.25;;
46355;SDS011;32066;49.474;11.106;2022-10-18T00:29:40;13.65;;;7.15;;
46355;SDS011;32066;49.474;11.106;2022-10-18T00:32:07;14.73;;;6.65;;
46355;SDS011;32066;49.474;11.106;2022-10-18T00:34:36;13.30;;;6.93;;
46355;SDS011;32066;49.474;11.106;2022-10-18T00:37:04;11.18;;;6.97;;
46355;SDS011;32066;49.474;11.106;2022-10-18T00:39:31;16.00;;;6.85;;
46355;SDS011;32066;49.474;11.106;2022-10-18T00:41:58;12.57;;;6.50;;
46355;SDS011;32066;49.474;11.106;2022-10-18T00:47:42;12.98;;;6.72;;
46355;SDS011;32066;49.474;11.106;2022-10-18T00:50:12;16.20;;;6.85;;
46355;SDS011;32066;49.474;11.106;2022-10-18T00:52:40;15.07;;;6.38;;
46355;SDS011;32066;49.474;11.106;2022-10-18T00:55:09;16.05;;;6.82;;
46355;SDS011;32066;49.474;11.106;2022-10-18T00:57:36;11.50;;;6.55;;
46355;SDS011;32066;49.474;11.106;2022-10-18T01:00:06;19.45;;;6.72;;
46355;SDS011;32066;49.474;11.106;2022-10-18T01:02:34;12.02;;;6.90;;
46355;SDS011;32066;49.474;11.106;2022-10-18T01:05:03;16.13;;;6.38;;
46355;SDS011;32066;49.474;11.106;2022-10-18T01:07:36;11.45;;;7.10;;
46355;SDS011;32066;49.474;11.106;2022-10-18T01:10:23;13.35;;;6.70;;
46355;SDS011;32066;49.474;11.106;2022-10-18T01:12:57;11.40;;;6.50;;
46355;SDS011;32066;49.474;11.106;2022-10-18T01:15:33;9.15;;;6.20;;
46355;SDS011;32066;49.474;11.106;2022-10-18T01:18:14;12.85;;;6.72;;
46355;SDS011;32066;49.474;11.106;2022-10-18T01:21:03;13.05;;;7.40;;
46355;SDS011;32066;49.474;11.106;2022-10-18T01:23:55;12.30;;;6.87;;
46355;SDS011;32066;49.474;11.106;2022-10-18T01:26:51;13.68;;;6.00;;
46355;SDS011;32066;49.474;11.106;2022-10-18T01:29:40;11.25;;;6.43;;
46355;SDS011;32066;49.474;11.106;2022-10-18T01:32:17;15.45;;;6.90;;
46355;SDS011;32066;49.474;11.106;2022-10-18T01:34:46;12.60;;;6.85;;
46355;SDS011;32066;49.474;11.106;2022-10-18T01:37:15;10.30;;;7.15;;
46355;SDS011;32066;49.474;11.106;2022-10-18T01:39:45;15.38;;;7.75;;
46355;SDS011;32066;49.474;11.106;2022-10-18T01:42:16;12.23;;;7.00;;
46355;SDS011;32066;49.474;11.106;2022-10-18T01:44:45;15.05;;;6.97;;
46355;SDS011;32066;49.474;11.106;2022-10-18T01:47:13;14.25;;;6.85;;
46355;SDS011;32066;49.474;11.106;2022-10-18T01:49:57;11.95;;;6.30;;
46355;SDS011;32066;49.474;11.106;2022-10-18T01:52:25;14.32;;;7.13;;
46355;SDS011;32066;49.474;11.106;2022-10-18T01:54:51;11.13;;;7.07;;
46355;SDS011;32066;49.474;11.106;2022-10-18T01:57:21;13.88;;;6.60;;
46355;SDS011;32066;49.474;11.106;2022-10-18T01:59:57;13.10;;;6.60;;
46355;SDS011;32066;49.474;11.106;2022-10-18T02:02:39;12.05;;;6.43;;
46355;SDS011;32066;49.474;11.106;2022-10-18T02:05:19;12.25;;;6.57;;
46355;SDS011;32066;49.474;11.106;2022-10-18T02:07:50;11.27;;;6.38;;
46355;SDS011;32066;49.474;11.106;2022-10-18T02:10:24;12.32;;;6.80;;
46355;SDS011;32066;49.474;11.106;2022-10-18T02:12:54;9.98;;;5.88;;
46355;SDS011;32066;49.474;11.106;2022-10-18T02:15:24;11.27;;;6.80;;
46355;SDS011;32066;49.474;11.106;2022-10-18T02:17:55;13.40;;;6.80;;
46355;SDS011;32066;49.474;11.106;2022-10-18T02:20:24;10.82;;;6.32;;
46355;SDS011;32066;49.474;11.106;2022-10-18T02:22:53;8.93;;;6.13;;
46355;SDS011;32066;49.474;11.106;2022-10-18T02:25:22;16.35;;;6.80;;
46355;SDS011;32066;49.474;11.106;2022-10-18T02:27:52;9.85;;;6.10;;
46355;SDS011;32066;49.474;11.106;2022-10-18T02:30:20;14.25;;;6.15;;
46355;SDS011;32066;49.474;11.106;2022-10-18T02:32:51;10.68;;;6.45;;
46355;SDS011;32066;49.474;11.106;2022-10-18T02:35:25;12.95;;;6.18;;
46355;SDS011;32066;49.474;11.106;2022-10-18T02:37:54;11.55;;;6.65;;
46355;SDS011;32066;49.474;11.106;2022-10-18T02:40:23;10.65;;;5.95;;
46355;SDS011;32066;49.474;11.106;2022-10-18T02:42:53;13.60;;;6.68;;
46355;SDS011;32066;49.474;11.106;2022-10-18T02:45:23;12.40;;;6.20;;
46355;SDS011;32066;49.474;11.106;2022-10-18T02:47:50;14.40;;;5.82;;
46355;SDS011;32066;49.474;11.106;2022-10-18T02:50:17;11.32;;;5.95;;
46355;SDS011;32066;49.474;11.106;2022-10-18T02:52:45;11.45;;;6.25;;
46355;SDS011;32066;49.474;11.106;2022-10-18T02:55:12;13.38;;;6.18;;
46355;SDS011;32066;49.474;11.106;2022-10-18T02:57:39;13.20;;;6.53;;
46355;SDS011;32066;49.474;11.106;2022-10-18T03:00:06;9.98;;;6.18;;
46355;SDS011;32066;49.474;11.106;2022-10-18T03:02:34;14.13;;;6.18;;
46355;SDS011;32066;49.474;11.106;2022-10-18T03:05:00;11.55;;;5.70;;
46355;SDS011;32066;49.474;11.106;2022-10-18T03:07:27;14.43;;;6.55;;
46355;SDS011;32066;49.474;11.106;2022-10-18T03:09:56;9.25;;;5.70;;
46355;SDS011;32066;49.474;11.106;2022-10-18T03:12:22;10.63;;;6.00;;
46355;SDS011;32066;49.474;11.106;2022-10-18T03:14:49;13.30;;;6.45;;
46355;SDS011;32066;49.474;11.106;2022-10-18T03:17:16;12.05;;;6.22;;
46355;SDS011;32066;49.474;11.106;2022-10-18T03:19:43;11.00;;;6.20;;
46355;SDS011;32066;49.474;11.106;2022-10-18T03:22:09;11.93;;;6.20;;
46355;SDS011;32066;49.474;11.106;2022-10-18T03:24:36;13.88;;;5.72;;
46355;SDS011;32066;49.474;11.106;2022-10-18T03:27:04;13.93;;;5.90;;
46355;SDS011;32066;49.474;11.106;2022-10-18T03:29:31;11.93;;;6.10;;
46355;SDS011;32066;49.474;11.106;2022-10-18T03:31:58;11.45;;;6.32;;
46355;SDS011;32066;49.474;11.106;2022-10-18T03:34:25;8.90;;;6.05;;
46355;SDS011;32066;49.474;11.106;2022-10-18T03:36:51;14.80;;;5.85;;
46355;SDS011;32066;49.474;11.106;2022-10-18T03:39:19;10.52;;;5.47;;
46355;SDS011;32066;49.474;11.106;2022-10-18T03:41:45;11.18;;;5.82;;
46355;SDS011;32066;49.474;11.106;2022-10-18T03:44:13;11.00;;;5.85;;
46355;SDS011;32066;49.474;11.106;2022-10-18T03:46:40;14.25;;;6.40;;
46355;SDS011;32066;49.474;11.106;2022-10-18T03:49:07;9.57;;;6.00;;
46355;SDS011;32066;49.474;11.106;2022-10-18T03:51:34;9.75;;;6.28;;
46355;SDS011;32066;49.474;11.106;2022-10-18T03:54:01;11.18;;;6.30;;
46355;SDS011;32066;49.474;11.106;2022-10-18T03:56:28;11.60;;;5.78;;
46355;SDS011;32066;49.474;11.106;2022-10-18T03:58:55;12.93;;;5.60;;
46355;SDS011;32066;49.474;11.106;2022-10-18T04:01:23;16.35;;;6.10;;
46355;SDS011;32066;49.474;11.106;2022-10-18T04:03:50;12.85;;;6.05;;
46355;SDS011;32066;49.474;11.106;2022-10-18T04:06:17;10.00;;;5.82;;
46355;SDS011;32066;49.474;11.106;2022-10-18T04:08:43;15.10;;;6.00;;
46355;SDS011;32066;49.474;11.106;2022-10-18T04:11:10;10.70;;;5.80;;
46355;SDS011;32066;49.474;11.106;2022-10-18T04:13:37;11.35;;;6.45;;
46355;SDS011;32066;49.474;11.106;2022-10-18T04:16:04;11.68;;;6.53;;
46355;SDS011;32066;49.474;11.106;2022-10-18T04:18:32;9.95;;;6.38;;
46355;SDS011;32066;49.474;11.106;2022-10-18T04:20:59;9.30;;;6.80;;
46355;SDS011;32066;49.474;11.106;2022-10-18T04:23:26;9.90;;;6.68;;
46355;SDS011;32066;49.474;11.106;2022-10-18T04:25:53;15.85;;;6.88;;
46355;SDS011;32066;49.474;11.106;2022-10-18T04:28:19;14.13;;;7.22;;
46355;SDS011;32066;49.474;11.106;2022-10-18T04:30:48;14.93;;;7.28;;
46355;SDS011;32066;49.474;11.106;2022-10-18T04:33:15;14.27;;;7.03;;
46355;SDS011;32066;49.474;11.106;2022-10-18T04:35:43;11.82;;;6.75;;
46355;SDS011;32066;49.474;11.106;2022-10-18T04:38:11;12.98;;;6.63;;
46355;SDS011;32066;49.474;11.106;2022-10-18T04:40:39;11.93;;;6.40;;
46355;SDS011;32066;49.474;11.106;2022-10-18T04:43:05;14.38;;;6.50;;
46355;SDS011;32066;49.474;11.106;2022-10-18T04:45:32;12.93;;;6.22;;
46355;SDS011;32066;49.474;11.106;2022-10-18T04:47:59;9.98;;;6.93;;
46355;SDS011;32066;49.474;11.106;2022-10-18T04:50:26;13.52;;;7.68;;
46355;SDS011;32066;49.474;11.106;2022-10-18T04:52:56;16.25;;;6.82;;
46355;SDS011;32066;49.474;11.106;2022-10-18T04:55:23;10.95;;;6.97;;
46355;SDS011;32066;49.474;11.106;2022-10-18T04:57:51;12.90;;;7.60;;
46355;SDS011;32066;49.474;11.106;2022-10-18T05:00:18;14.65;;;7.57;;
46355;SDS011;32066;49.474;11.106;2022-10-18T05:02:45;13.82;;;6.80;;
46355;SDS011;32066;49.474;11.106;2022-10-18T05:05:12;14.90;;;7.00;;
46355;SDS011;32066;49.474;11.106;2022-10-18T05:07:38;12.82;;;7.25;;
46355;SDS011;32066;49.474;11.106;2022-10-18T05:10:07;16.52;;;6.95;;
46355;SDS011;32066;49.474;11.106;2022-10-18T05:12:34;10.68;;;6.50;;
46355;SDS011;32066;49.474;11.106;2022-10-18T05:15:03;11.30;;;6.43;;
46355;SDS011;32066;49.474;11.106;2022-10-18T05:17:30;15.57;;;6.25;;
46355;SDS011;32066;49.474;11.106;2022-10-18T05:19:57;13.35;;;6.55;;
46355;SDS011;32066;49.474;11.106;2022-10-18T05:22:24;15.52;;;8.02;;
46355;SDS011;32066;49.474;11.106;2022-10-18T05:24:51;12.98;;;7.20;;
46355;SDS011;32066;49.474;11.106;2022-10-18T05:27:19;13.02;;;7.15;;
46355;SDS011;32066;49.474;11.106;2022-10-18T05:29:46;17.60;;;6.47;;
46355;SDS011;32066;49.474;11.106;2022-10-18T05:32:13;12.27;;;6.28;;
46355;SDS011;32066;49.474;11.106;2022-10-18T05:34:39;11.25;;;5.95;;
46355;SDS011;32066;49.474;11.106;2022-10-18T05:37:06;11.43;;;6.05;;
46355;SDS011;32066;49.474;11.106;2022-10-18T05:39:33;15.05;;;6.13;;
46355;SDS011;32066;49.474;11.106;2022-10-18T05:42:05;15.68;;;5.90;;
46355;SDS011;32066;49.474;11.106;2022-10-18T05:44:34;10.07;;;5.85;;
46355;SDS011;32066;49.474;11.106;2022-10-18T05:47:01;11.57;;;6.22;;
46355;SDS011;32066;49.474;11.106;2022-10-18T05:49:27;12.05;;;6.95;;
46355;SDS011;32066;49.474;11.106;2022-10-18T05:51:54;13.63;;;7.05;;
46355;SDS011;32066;49.474;11.106;2022-10-18T05:54:21;10.23;;;6.45;;
46355;SDS011;32066;49.474;11.106;2022-10-18T05:56:48;11.95;;;6.03;;
46355;SDS011;32066;49.474;11.106;2022-10-18T05:59:14;13.05;;;6.93;;
46355;SDS011;32066;49.474;11.106;2022-10-18T06:01:43;14.65;;;7.93;;
46355;SDS011;32066;49.474;11.106;2022-10-18T06:04:09;13.00;;;6.63;;
46355;SDS011;32066;49.474;11.106;2022-10-18T06:06:36;13.75;;;6.68;;
46355;SDS011;32066;49.474;11.106;2022-10-18T06:09:04;11.13;;;6.20;;
46355;SDS011;32066;49.474;11.106;2022-10-18T06:11:32;12.15;;;6.60;;
46355;SDS011;32066;49.474;11.106;2022-10-18T06:14:01;12.60;;;7.05;;
46355;SDS011;32066;49.474;11.106;2022-10-18T06:16:29;10.27;;;6.32;;
46355;SDS011;32066;49.474;11.106;2022-10-18T06:18:57;12.95;;;6.15;;
46355;SDS011;32066;49.474;11.106;2022-10-18T06:21:24;11.73;;;6.70;;
46355;SDS011;32066;49.474;11.106;2022-10-18T06:23:52;12.88;;;6.78;;
46355;SDS011;32066;49.474;11.106;2022-10-18T06:26:20;13.95;;;6.18;;
46355;SDS011;32066;49.474;11.106;2022-10-18T06:28:48;12.20;;;6.55;;
46355;SDS011;32066;49.474;11.106;2022-10-18T06:31:15;15.50;;;6.88;;
46355;SDS011;32066;49.474;11.106;2022-10-18T06:33:42;15.77;;;6.63;;
46355;SDS011;32066;49.474;11.106;2022-10-18T06:36:12;13.50;;;6.38;;
46355;SDS011;32066;49.474;11.106;2022-10-18T06:38:40;11.73;;;7.00;;
46355;SDS011;32066;49.474;11.106;2022-10-18T06:41:07;11.90;;;6.43;;
46355;SDS011;32066;49.474;11.106;2022-10-18T06:43:35;19.05;;;6.43;;
46355;SDS011;32066;49.474;11.106;2022-10-18T06:46:02;12.23;;;6.60;;
46355;SDS011;32066;49.474;11.106;2022-10-18T06:48:32;12.88;;;6.65;;
46355;SDS011;32066;49.474;11.106;2022-10-18T06:51:00;14.98;;;7.15;;
46355;SDS011;32066;49.474;11.106;2022-10-18T06:53:29;11.55;;;6.97;;
46355;SDS011;32066;49.474;11.106;2022-10-18T06:55:58;14.32;;;7.22;;
46355;SDS011;32066;49.474;11.106;2022-10-18T06:58:25;11.07;;;6.88;;
46355;SDS011;32066;49.474;11.106;2022-10-18T07:00:53;11.75;;;7.28;;
46355;SDS011;32066;49.474;11.106;2022-10-18T07:03:19;17.02;;;7.40;;
46355;SDS011;32066;49.474;11.106;2022-10-18T07:05:46;15.23;;;7.03;;
46355;SDS011;32066;49.474;11.106;2022-10-18T07:08:13;11.45;;;7.10;;
46355;SDS011;32066;49.474;11.106;2022-10-18T07:10:42;9.98;;;6.90;;
46355;SDS011;32066;49.474;11.106;2022-10-18T07:13:16;9.48;;;6.53;;
46355;SDS011;32066;49.474;11.106;2022-10-18T07:15:42;14.07;;;7.13;;
46355;SDS011;32066;49.474;11.106;2022-10-18T07:18:09;11.20;;;7.05;;
46355;SDS011;32066;49.474;11.106;2022-10-18T07:20:36;11.95;;;7.32;;
46355;SDS011;32066;49.474;11.106;2022-10-18T07:23:03;13.13;;;7.03;;
46355;SDS011;32066;49.474;11.106;2022-10-18T07:25:32;12.35;;;7.10;;
46355;SDS011;32066;49.474;11.106;2022-10-18T07:28:00;18.45;;;11.10;;
46355;SDS011;32066;49.474;11.106;2022-10-18T07:30:27;14.18;;;8.82;;
46355;SDS011;32066;49.474;11.106;2022-10-18T07:32:54;13.05;;;7.93;;
46355;SDS011;32066;49.474;11.106;2022-10-18T07:35:21;11.75;;;7.50;;
46355;SDS011;32066;49.474;11.106;2022-10-18T07:37:47;14.05;;;7.10;;
46355;SDS011;32066;49.474;11.106;2022-10-18T07:40:14;12.60;;;6.70;;
46355;SDS011;32066;49.474;11.106;2022-10-18T07:42:41;10.30;;;7.30;;
46355;SDS011;32066;49.474;11.106;2022-10-18T07:45:09;15.00;;;7.13;;
46355;SDS011;32066;49.474;11.106;2022-10-18T07:47:37;13.05;;;6.95;;
46355;SDS011;32066;49.474;11.106;2022-10-18T07:50:05;10.32;;;6.90;;
46355;SDS011;32066;49.474;11.106;2022-10-18T07:52:32;9.65;;;6.30;;
46355;SDS011;32066;49.474;11.106;2022-10-18T07:54:59;13.13;;;6.97;;
46355;SDS011;32066;49.474;11.106;2022-10-18T07:57:26;13.13;;;7.22;;
46355;SDS011;32066;49.474;11.106;2022-10-18T07:59:52;11.82;;;6.90;;
46355;SDS011;32066;49.474;11.106;2022-10-18T08:02:22;14.18;;;7.40;;
46355;SDS011;32066;49.474;11.106;2022-10-18T08:04:49;13.82;;;8.07;;
46355;SDS011;32066;49.474;11.106;2022-10-18T08:07:16;15.55;;;7.82;;
46355;SDS011;32066;49.474;11.106;2022-10-18T08:09:42;13.35;;;7.22;;
46355;SDS011;32066;49.474;11.106;2022-10-18T08:12:09;11.23;;;7.07;;
46355;SDS011;32066;49.474;11.106;2022-10-18T08:14:36;9.82;;;7.22;;
46355;SDS011;32066;49.474;11.106;2022-10-18T08:17:03;11.57;;;6.32;;
46355;SDS011;32066;49.474;11.106;2022-10-18T08:19:31;13.85;;;6.80;;
46355;SDS011;32066;49.474;11.106;2022-10-18T08:21:58;10.90;;;6.75;;
46355;SDS011;32066;49.474;11.106;2022-10-18T08:24:25;11.43;;;6.93;;
46355;SDS011;32066;49.474;11.106;2022-10-18T08:26:51;13.77;;;7.10;;
46355;SDS011;32066;49.474;11.106;2022-10-18T08:29:18;12.65;;;6.88;;
46355;SDS011;32066;49.474;11.106;2022-10-18T08:31:45;11.77;;;6.78;;
46355;SDS011;32066;49.474;11.106;2022-10-18T08:34:14;10.65;;;7.03;;
46355;SDS011;32066;49.474;11.106;2022-10-18T08:36:42;10.95;;;6.75;;
46355;SDS011;32066;49.474;11.106;2022-10-18T08:39:09;16.10;;;7.55;;
46355;SDS011;32066;49.474;11.106;2022-10-18T08:44:25;11.15;;;7.05;;
46355;SDS011;32066;49.474;11.106;2022-10-18T08:46:54;15.77;;;7.80;;
46355;SDS011;32066;49.474;11.106;2022-10-18T08:49:27;12.30;;;6.97;;
46355;SDS011;32066;49.474;11.106;2022-10-18T08:52:01;10.88;;;6.88;;
46355;SDS011;32066;49.474;11.106;2022-10-18T08:54:38;12.77;;;6.65;;
46355;SDS011;32066;49.474;11.106;2022-10-18T08:57:09;16.33;;;7.22;;
46355;SDS011;32066;49.474;11.106;2022-10-18T08:59:40;13.57;;;7.00;;
46355;SDS011;32066;49.474;11.106;2022-10-18T09:02:14;12.30;;;6.57;;
46355;SDS011;32066;49.474;11.106;2022-10-18T09:04:48;13.25;;;6.70;;
46355;SDS011;32066;49.474;11.106;2022-10-18T09:10:37;11.35;;;5.50;;
46355;SDS011;32066;49.474;11.106;2022-10-18T09:13:20;14.32;;;5.88;;
46355;SDS011;32066;49.474;11.106;2022-10-18T09:16:03;7.85;;;4.82;;
46355;SDS011;32066;49.474;11.106;2022-10-18T09:18:46;12.60;;;5.18;;
46355;SDS011;32066;49.474;11.106;2022-10-18T09:21:22;11.30;;;4.85;;
46355;SDS011;32066;49.474;11.106;2022-10-18T09:23:58;9.35;;;4.43;;
46355;SDS011;32066;49.474;11.106;2022-10-18T09:26:31;11.70;;;4.95;;
46355;SDS011;32066;49.474;11.106;2022-10-18T09:29:20;12.48;;;5.28;;
46355;SDS011;32066;49.474;11.106;2022-10-18T09:31:59;7.78;;;4.00;;
46355;SDS011;32066;49.474;11.106;2022-10-18T09:34:34;14.13;;;4.28;;
46355;SDS011;32066;49.474;11.106;2022-10-18T09:37:07;13.13;;;5.75;;
46355;SDS011;32066;49.474;11.106;2022-10-18T09:39:38;10.38;;;4.60;;
46355;SDS011;32066;49.474;11.106;2022-10-18T09:42:10;11.75;;;4.55;;
46355;SDS011;32066;49.474;11.106;2022-10-18T09:44:43;9.85;;;4.13;;
46355;SDS011;32066;49.474;11.106;2022-10-18T09:47:15;7.80;;;3.97;;
46355;SDS011;32066;49.474;11.106;2022-10-18T09:49:46;6.40;;;3.80;;
46355;SDS011;32066;49.474;11.106;2022-10-18T09:52:17;10.38;;;4.15;;
46355;SDS011;32066;49.474;11.106;2022-10-18T09:54:50;9.88;;;4.47;;
46355;SDS011;32066;49.474;11.106;2022-10-18T09:57:22;7.57;;;3.92;;
46355;SDS011;32066;49.474;11.106;2022-10-18T09:59:54;6.78;;;4.07;;
46355;SDS011;32066;49.474;11.106;2022-10-18T10:02:23;6.88;;;3.50;;
46355;SDS011;32066;49.474;11.106;2022-10-18T10:04:50;7.28;;;3.80;;
46355;SDS011;32066;49.474;11.106;2022-10-18T10:07:20;9.63;;;3.95;;
46355;SDS011;32066;49.474;11.106;2022-10-18T10:09:56;8.88;;;3.67;;
46355;SDS011;32066;49.474;11.106;2022-10-18T10:12:25;8.95;;;3.80;;
46355;SDS011;32066;49.474;11.106;2022-10-18T10:14:54;9.88;;;4.03;;
46355;SDS011;32066;49.474;11.106;2022-10-18T10:17:32;7.97;;;4.07;;
46355;SDS011;32066;49.474;11.106;2022-10-18T10:20:01;11.73;;;4.45;;
46355;SDS011;32066;49.474;11.106;2022-10-18T10:22:34;10.15;;;4.18;;
46355;SDS011;32066;49.474;11.106;2022-10-18T10:25:05;6.38;;;3.80;;
46355;SDS011;32066;49.474;11.106;2022-10-18T10:27:44;9.55;;;4.15;;
46355;SDS011;32066;49.474;11.106;2022-10-18T10:30:19;9.43;;;4.35;;
46355;SDS011;32066;49.474;11.106;2022-10-18T10:32:49;9.82;;;4.53;;
46355;SDS011;32066;49.474;11.106;2022-10-18T10:38:02;7.43;;;4.47;;
46355;SDS011;32066;49.474;11.106;2022-10-18T10:40:32;8.95;;;4.53;;
46355;SDS011;32066;49.474;11.106;2022-10-18T10:43:01;9.88;;;4.70;;
46355;SDS011;32066;49.474;11.106;2022-10-18T10:45:31;9.02;;;4.30;;
46355;SDS011;32066;49.474;11.106;2022-10-18T10:48:02;8.80;;;4.40;;
46355;SDS011;32066;49.474;11.106;2022-10-18T10:50:32;7.68;;;4.05;;
46355;SDS011;32066;49.474;11.106;2022-10-18T10:53:25;11.18;;;4.18;;
46355;SDS011;32066;49.474;11.106;2022-10-18T10:56:00;9.68;;;3.30;;
46355;SDS011;32066;49.474;11.106;2022-10-18T10:58:29;7.82;;;3.60;;
46355;SDS011;32066;49.474;11.106;2022-10-18T11:01:15;8.20;;;3.63;;
46355;SDS011;32066;49.474;11.106;2022-10-18T11:03:54;9.00;;;3.33;;
46355;SDS011;32066;49.474;11.106;2022-10-18T11:06:39;11.20;;;3.88;;
46355;SDS011;32066;49.474;11.106;2022-10-18T11:09:24;8.30;;;3.03;;
46355;SDS011;32066;49.474;11.106;2022-10-18T11:12:04;8.52;;;3.83;;
46355;SDS011;32066;49.474;11.106;2022-10-18T11:14:55;9.35;;;3.78;;
46355;SDS011;32066;49.474;11.106;2022-10-18T11:17:28;7.20;;;3.30;;
46355;SDS011;32066;49.474;11.106;2022-10-18T11:20:04;9.65;;;4.10;;
46355;SDS011;32066;49.474;11.106;2022-10-18T11:22:45;6.07;;;3.67;;
46355;SDS011;32066;49.474;11.106;2022-10-18T11:25:28;9.13;;;3.80;;
46355;SDS011;32066;49.474;11.106;2022-10-18T11:28:10;12.35;;;4.03;;
46355;SDS011;32066;49.474;11.106;2022-10-18T11:30:47;9.40;;;3.53;;
46355;SDS011;32066;49.474;11.106;2022-10-18T11:33:21;8.52;;;4.15;;
46355;SDS011;32066;49.474;11.106;2022-10-18T11:35:53;9.48;;;3.85;;
46355;SDS011;32066;49.474;11.106;2022-10-18T11:38:30;10.38;;;3.63;;
46355;SDS011;32066;49.474;11.106;2022-10-18T11:41:05;12.23;;;3.83;;
46355;SDS011;32066;49.474;11.106;2022-10-18T11:43:43;9.13;;;3.90;;
46355;SDS011;32066;49.474;11.106;2022-10-18T11:46:18;8.77;;;3.58;;
46355;SDS011;32066;49.474;11.106;2022-10-18T11:48:58;9.25;;;4.20;;
46355;SDS011;32066;49.474;11.106;2022-10-18T11:51:36;9.70;;;4.45;;
46355;SDS011;32066;49.474;11.106;2022-10-18T11:54:22;10.93;;;3.70;;
46355;SDS011;32066;49.474;11.106;2022-10-18T11:57:04;9.00;;;4.07;;
46355;SDS011;32066;49.474;11.106;2022-10-18T11:59:40;9.77;;;4.20;;
46355;SDS011;32066;49.474;11.106;2022-10-18T12:02:21;8.25;;;3.80;;
46355;SDS011;32066;49.474;11.106;2022-10-18T12:04:59;8.50;;;4.25;;
46355;SDS011;32066;49.474;11.106;2022-10-18T12:07:28;8.65;;;3.55;;
46355;SDS011;32066;49.474;11.106;2022-10-18T12:09:58;6.88;;;3.70;;
46355;SDS011;32066;49.474;11.106;2022-10-18T12:12:27;7.63;;;3.80;;
46355;SDS011;32066;49.474;11.106;2022-10-18T12:15:00;9.07;;;4.18;;
46355;SDS011;32066;49.474;11.106;2022-10-18T12:17:31;9.75;;;4.55;;
46355;SDS011;32066;49.474;11.106;2022-10-18T12:20:04;6.75;;;4.00;;
46355;SDS011;32066;49.474;11.106;2022-10-18T12:22:38;7.20;;;3.97;;
46355;SDS011;32066;49.474;11.106;2022-10-18T12:25:09;13.05;;;4.13;;
46355;SDS011;32066;49.474;11.106;2022-10-18T12:27:38;10.40;;;4.32;;
46355;SDS011;32066;49.474;11.106;2022-10-18T12:30:13;8.30;;;4.65;;
46355;SDS011;32066;49.474;11.106;2022-10-18T12:32:48;8.20;;;4.18;;
46355;SDS011;32066;49.474;11.106;2022-10-18T12:35:20;9.15;;;4.07;;
46355;SDS011;32066;49.474;11.106;2022-10-18T12:37:52;9.95;;;4.70;;
46355;SDS011;32066;49.474;11.106;2022-10-18T12:40:32;7.90;;;4.00;;
46355;SDS011;32066;49.474;11.106;2022-10-18T12:43:06;10.13;;;4.30;;
46355;SDS011;32066;49.474;11.106;2022-10-18T12:45:45;8.55;;;4.50;;
46355;SDS011;32066;49.474;11.106;2022-10-18T12:48:28;10.20;;;4.47;;
46355;SDS011;32066;49.474;11.106;2022-10-18T12:50:58;7.55;;;4.07;;
46355;SDS011;32066;49.474;11.106;2022-10-18T12:53:28;9.40;;;4.65;;
46355;SDS011;32066;49.474;11.106;2022-10-18T12:55:55;11.30;;;4.57;;
46355;SDS011;32066;49.474;11.106;2022-10-18T13:02:21;11.35;;;4.68;;
46355;SDS011;32066;49.474;11.106;2022-10-18T13:04:53;7.90;;;3.55;;
46355;SDS011;32066;49.474;11.106;2022-10-18T13:07:35;7.32;;;3.33;;
46355;SDS011;32066;49.474;11.106;2022-10-18T13:13:10;10.25;;;4.40;;
46355;SDS011;32066;49.474;11.106;2022-10-18T13:15:48;10.75;;;4.20;;
46355;SDS011;32066;49.474;11.106;2022-10-18T13:18:22;11.88;;;4.45;;
46355;SDS011;32066;49.474;11.106;2022-10-18T13:20:55;12.23;;;5.03;;
46355;SDS011;32066;49.474;11.106;2022-10-18T13:23:36;9.85;;;5.10;;
46355;SDS011;32066;49.474;11.106;2022-10-18T13:26:14;8.25;;;4.57;;
46355;SDS011;32066;49.474;11.106;2022-10-18T13:28:49;10.43;;;4.30;;
46355;SDS011;32066;49.474;11.106;2022-10-18T13:31:22;10.80;;;5.68;;
46355;SDS011;32066;49.474;11.106;2022-10-18T13:33:53;11.40;;;5.13;;
46355;SDS011;32066;49.474;11.106;2022-10-18T13:36:21;8.70;;;4.82;;
46355;SDS011;32066;49.474;11.106;2022-10-18T13:38:57;14.63;;;5.03;;
46355;SDS011;32066;49.474;11.106;2022-10-18T13:41:27;10.93;;;5.30;;
46355;SDS011;32066;49.474;11.106;2022-10-18T13:53:25;12.85;;;4.72;;
46355;SDS011;32066;49.474;11.106;2022-10-18T13:56:08;9.65;;;5.63;;
46355;SDS011;32066;49.474;11.106;2022-10-18T13:58:48;12.32;;;5.40;;
46355;SDS011;32066;49.474;11.106;2022-10-18T14:01:29;10.07;;;5.22;;
46355;SDS011;32066;49.474;11.106;2022-10-18T14:07:02;8.52;;;4.75;;
46355;SDS011;32066;49.474;11.106;2022-10-18T14:09:32;8.60;;;5.03;;
46355;SDS011;32066;49.474;11.106;2022-10-18T14:12:02;9.38;;;5.22;;
46355;SDS011;32066;49.474;11.106;2022-10-18T14:14:40;9.85;;;5.40;;
46355;SDS011;32066;49.474;11.106;2022-10-18T14:17:13;9.38;;;5.57;;
46355;SDS011;32066;49.474;11.106;2022-10-18T14:19:50;12.68;;;5.20;;
46355;SDS011;32066;49.474;11.106;2022-10-18T14:22:23;11.45;;;5.10;;
46355;SDS011;32066;49.474;11.106;2022-10-18T14:24:57;11.27;;;5.88;;
46355;SDS011;32066;49.474;11.106;2022-10-18T14:27:24;9.52;;;5.50;;
46355;SDS011;32066;49.474;11.106;2022-10-18T14:30:05;11.57;;;5.38;;
46355;SDS011;32066;49.474;11.106;2022-10-18T14:32:35;9.25;;;5.30;;
46355;SDS011;32066;49.474;11.106;2022-10-18T14:35:02;9.57;;;5.15;;
46355;SDS011;32066;49.474;11.106;2022-10-18T14:37:40;11.93;;;5.53;;
46355;SDS011;32066;49.474;11.106;2022-10-18T14:40:20;8.77;;;5.50;;
46355;SDS011;32066;49.474;11.106;2022-10-18T14:42:52;10.00;;;5.18;;
46355;SDS011;32066;49.474;11.106;2022-10-18T14:45:19;9.23;;;4.75;;
46355;SDS011;32066;49.474;11.106;2022-10-18T14:47:48;8.13;;;4.97;;
46355;SDS011;32066;49.474;11.106;2022-10-18T14:50:19;7.60;;;4.20;;
46355;SDS011;32066;49.474;11.106;2022-10-18T14:52:47;6.18;;;4.13;;
46355;SDS011;32066;49.474;11.106;2022-10-18T14:55:14;8.35;;;4.22;;
46355;SDS011;32066;49.474;11.106;2022-10-18T14:57:49;8.32;;;4.40;;
46355;SDS011;32066;49.474;11.106;2022-10-18T15:00:19;7.60;;;3.75;;
46355;SDS011;32066;49.474;11.106;2022-10-18T15:02:50;7.13;;;3.88;;
46355;SDS011;32066;49.474;11.106;2022-10-18T15:05:19;7.88;;;4.10;;
46355;SDS011;32066;49.474;11.106;2022-10-18T15:07:48;7.80;;;3.80;;
46355;SDS011;32066;49.474;11.106;2022-10-18T15:10:17;8.00;;;4.15;;
46355;SDS011;32066;49.474;11.106;2022-10-18T15:12:47;9.35;;;4.03;;
46355;SDS011;32066;49.474;11.106;2022-10-18T15:15:16;8.18;;;4.07;;
46355;SDS011;32066;49.474;11.106;2022-10-18T15:17:45;5.25;;;3.70;;